Treichlers, Pennsylvania
Current Conditions -  °F | °C
As of 2:51 PM on Thursday 23 Oct 2014 (Local Time) from KABE Reporting Station
Overcast Overcast  
Wind Chill: 54°   Ceiling: 4700
Heat Index: 54°   Visibility: 10mi
Dew Point: 42°   Wind: 16mph
Humidity: 64%   Direction: 340°NNW
Pressure: 29.79"   Gusts: 25mph
Location:  40.73°N, 75.54°W
Report Text: KABE 231851Z 34014G22KT 10SM FEW027 OVC047 12/06 A2979 RMK AO2 SLP089 T01220056
Loading
Personal Weather Stations






























Interactive Weather Map
Tropical Storm Tracking
New forecast layout! Learn more

10-Day Weather Forecast

Advertisements
Track Severe Weather on mobile